Airfield :







YOU CAN JOIN US ON...

 
LOGIN :

Register | Disclaimer

   EN    FR    IT 

 









Legend :    VFR   Marginal VFR   IFR   Intensive IFR   Very Intensive IFR
Visi :
Ceiling :
>= 8 km
>= 3000ft
5 to 8 km
1000 to 3000 ft
1500m to 5 km
500 to 1000 ft
800 to 1500m
200 to 500 ft
< 800m
< 200 ft
Symbols :   Thunderstorms  Fog  Heavy snow  Heavy precipitations  Wind > 20 kt






- Airport Elevation : 59 ft
- IATA code : PBM


SMJP - J.A. Pengel Int.

CURRENT METAR :
  • 070900Z 22003KT 5000 BR FEW003 FEW015CB 24/23 Q1014 NOSIG

EXPIRED METARs :
  • 070800Z 21002KT 0900 FG SCT002 24/24 Q1014 NOSIG
  • 070700Z 00000KT 2000 BR SCT003 24/24 Q1014 NOSIG

TAF TAF SMJP
Valid from the 07 at 06:00 until the 08 at 06:00 UTC


070400Z 0706/0806 00000KT CAVOK TX31/0718Z TN24/0709Z
PROB30
TEMPO 0709/0710 3000 BR SCT002
BECMG 0711/0713 08008KT SCT020
BECMG 0718/0722 VRB12G22KT 3000 TSRA FEW015CB BKN018
FM072200 05005KT CAVOK
SMPM FIR / South America



MET'MAP, your aeronautical weather chart ! - Copyright ORBIFLY December 2007 - Disclaimer

ORBIFLY MET'MAP TEAM :

Programming & Development : Alexandra Zaïnal
Concept & original design : Baudouin d'Aumeries
Assistance for programming : Marc-Olivier Méhu
Technical & hardware support : Manuel Goepfert

Contact : metmap@orbifly.com




SOURCES & CREDITS :

   NOAA